San Cayetano, Argentina
Current Conditions -  °F | °C
As of 3:00 PM on Wednesday 28 Jan 2015 (Local Time) from SAZM Reporting Station
Clear Clear  
Wind Chill: 22°   Ceiling: Unl
Heat Index: 22°   Visibility: 6mi
Dew Point:   Wind: 17mph
Humidity: 38%   Direction: 160°SSE
Pressure: 29.94"   Gusts: NA
Location:  38.33°S, 59.62°W
Report Text: SAZM 281800Z 16015KT CAVOK 22/07 Q1014
Loading
Personal Weather Stations






























Interactive Weather Map New forecast layout! Learn more

10-Day Weather Forecast

Advertisements
Track Severe Weather on mobile